Time;durP1;ratioP1;P1;durP2;ratioP2;P2;SDS_P1;SDS_P2;PMS_P1;PMS_P2;Temp;Humidity;BMP_temperature;BMP_pressure;BME280_temperature;BME280_humidity;BME280_pressure;Samples;Min_cycle;Max_cycle;Signal;HPM_P1;HPM_P2
2022/10/07 00:01:47;;;;;;;11.13;2.50;;;10.80;99.90;;;;;;6043929;23;20121;-86
2022/10/07 00:04:13;;;;;;;10.40;2.38;;;10.90;99.90;;;;;;6019522;23;20014;-86
2022/10/07 00:06:39;;;;;;;11.88;2.60;;;10.80;99.90;;;;;;6043251;23;20014;-86
2022/10/07 00:09:05;;;;;;;13.48;2.65;;;10.80;99.90;;;;;;6019714;23;20011;-87
2022/10/07 00:11:31;;;;;;;9.68;2.35;;;11.50;99.90;;;;;;6067318;23;20377;-87
2022/10/07 00:14:00;;;;;;;12.20;3.00;;;10.80;99.90;;;;;;6044183;23;20081;-87
2022/10/07 00:16:29;;;;;;;11.90;2.40;;;10.80;99.90;;;;;;6092739;23;20017;-88
2022/10/07 00:18:59;;;;;;;9.90;2.30;;;10.80;99.90;;;;;;6067338;23;20381;-87
2022/10/07 00:21:27;;;;;;;12.07;2.53;;;10.80;99.90;;;;;;6043190;23;20072;-85
2022/10/07 00:23:53;;;;;;;10.82;2.65;;;10.80;99.90;;;;;;6043540;23;20041;-86
2022/10/07 00:26:21;;;;;;;12.20;2.95;;;10.80;99.90;;;;;;6067062;23;20448;-87
2022/10/07 00:28:47;;;;;;;14.68;2.95;;;10.80;99.90;;;;;;6067478;23;20344;-85
2022/10/07 00:31:15;;;;;;;10.85;2.40;;;10.80;99.90;;;;;;6041458;23;20026;-84
2022/10/07 00:33:41;;;;;;;10.23;2.45;;;10.80;99.90;;;;;;6043539;23;20527;-85
2022/10/07 00:36:13;;;;;;;11.13;2.55;;;10.70;99.90;;;;;;6038073;23;20031;-86
2022/10/07 00:38:40;;;;;;;10.02;2.40;;;10.70;99.90;;;;;;6041436;23;20021;-84
2022/10/07 00:41:07;;;;;;;13.23;2.70;;;10.70;99.90;;;;;;6042962;23;20053;-85
2022/10/07 00:43:33;;;;;;;9.98;2.60;;;10.70;99.90;;;;;;6067299;23;20021;-85
2022/10/07 00:46:25;;;;;;;11.98;2.40;;;10.70;99.90;;;;;;6042937;23;20033;-86
2022/10/07 00:48:51;;;;;;;13.32;2.35;;;10.60;99.90;;;;;;6026766;23;20189;-85
2022/10/07 00:51:17;;;;;;;11.38;2.67;;;10.60;99.90;;;;;;6043547;23;20348;-86
2022/10/07 00:53:47;;;;;;;11.02;2.40;;;10.60;99.90;;;;;;6041049;23;20022;-86
2022/10/07 00:56:15;;;;;;;10.93;2.28;;;10.60;99.90;;;;;;6043262;23;20167;-86
2022/10/07 00:58:43;;;;;;;13.65;2.60;;;10.50;99.90;;;;;;6067000;23;20019;-85
2022/10/07 01:01:10;;;;;;;13.20;2.38;;;10.50;99.90;;;;;;6066577;23;20449;-86
2022/10/07 01:03:37;;;;;;;13.05;2.70;;;10.50;99.90;;;;;;6043172;23;20015;-87
2022/10/07 01:06:04;;;;;;;12.30;2.60;;;10.50;99.90;;;;;;6043276;23;20014;-86
2022/10/07 01:08:30;;;;;;;13.48;2.65;;;10.40;99.90;;;;;;6041844;23;20271;-86
2022/10/07 01:11:13;;;;;;;9.25;2.25;;;10.40;99.90;;;;;;6041667;23;20026;-86
2022/10/07 01:14:00;;;;;;;13.25;3.03;;;10.30;99.90;;;;;;6067563;23;20561;-86
2022/10/07 01:16:46;;;;;;;10.18;2.60;;;10.30;99.90;;;;;;6067117;23;20503;-86
2022/10/07 01:19:37;;;;;;;12.88;3.30;;;10.20;99.90;;;;;;6066277;23;20018;-84
2022/10/07 01:22:28;;;;;;;12.32;2.63;;;10.20;99.90;;;;;;6066418;23;20015;-86
2022/10/07 01:25:19;;;;;;;12.18;2.70;;;10.20;99.90;;;;;;6065282;23;20019;-87
2022/10/07 01:27:53;;;;;;;8.52;2.50;;;10.10;99.90;;;;;;6067035;23;20069;-87
2022/10/07 01:30:19;;;;;;;11.40;2.70;;;10.30;99.90;;;;;;6042794;23;20018;-87
2022/10/07 01:33:00;;;;;;;12.23;2.88;;;10.10;99.90;;;;;;6030993;23;20069;-86
2022/10/07 01:35:32;;;;;;;13.13;2.88;;;10.60;99.90;;;;;;6090897;23;20072;-86
2022/10/07 01:38:05;;;;;;;12.30;3.00;;;10.10;99.90;;;;;;6067379;23;20022;-87
2022/10/07 01:41:03;;;;;;;14.90;3.33;;;10.10;99.90;;;;;;6042476;23;20278;-86
2022/10/07 01:43:31;;;;;;;12.85;2.88;;;10.20;99.90;;;;;;6014013;23;20341;-87
2022/10/07 01:45:58;;;;;;;12.60;3.40;;;10.00;99.90;;;;;;6065314;23;20053;-86
2022/10/07 01:48:24;;;;;;;11.27;2.97;;;10.00;99.90;;;;;;6019814;23;20018;-86
2022/10/07 01:50:51;;;;;;;12.23;3.20;;;10.00;99.90;;;;;;6018390;23;20547;-87
2022/10/07 01:53:40;;;;;;;12.65;3.40;;;10.00;99.90;;;;;;6042217;23;20116;-86
2022/10/07 01:56:36;;;;;;;10.82;2.67;;;10.00;99.90;;;;;;6066077;23;20014;-87
2022/10/07 01:59:28;;;;;;;12.68;3.03;;;10.00;99.90;;;;;;6090425;23;20270;-86
2022/10/07 02:02:15;;;;;;;10.95;2.80;;;9.90;99.90;;;;;;6066234;23;20109;-86
2022/10/07 02:05:18;;;;;;;12.30;3.15;;;9.90;99.90;;;;;;6091649;23;20089;-86
2022/10/07 02:08:13;;;;;;;10.73;2.90;;;9.90;99.90;;;;;;6066480;23;20025;-86
2022/10/07 02:10:50;;;;;;;11.82;3.10;;;9.90;99.90;;;;;;6023449;23;20022;-86
2022/10/07 02:13:27;;;;;;;13.55;2.92;;;9.80;99.90;;;;;;6066395;23;20014;-86
2022/10/07 02:16:18;;;;;;;13.10;2.60;;;9.80;99.90;;;;;;6041952;23;20018;-86
2022/10/07 02:18:49;;;;;;;11.15;3.20;;;9.80;99.90;;;;;;6043122;23;20022;-86
2022/10/07 02:21:18;;;;;;;11.13;2.92;;;10.70;99.90;;;;;;6040787;23;20475;-87
2022/10/07 02:23:47;;;;;;;14.70;3.55;;;10.90;99.90;;;;;;6092723;23;20349;-86
2022/10/07 02:26:18;;;;;;;10.43;3.17;;;9.80;99.90;;;;;;6064469;23;20022;-84
2022/10/07 02:28:45;;;;;;;15.43;3.10;;;9.80;99.90;;;;;;6067257;23;20443;-87
2022/10/07 02:31:16;;;;;;;11.13;3.22;;;10.40;99.90;;;;;;6066529;23;20022;-86
2022/10/07 02:33:45;;;;;;;12.57;3.47;;;9.80;99.90;;;;;;6041802;23;20022;-87
2022/10/07 02:36:15;;;;;;;11.95;3.22;;;9.80;99.90;;;;;;6065289;23;20499;-87
2022/10/07 02:38:44;;;;;;;12.18;3.10;;;9.80;99.90;;;;;;6066695;23;20026;-86
2022/10/07 02:41:42;;;;;;;15.52;3.38;;;9.90;99.90;;;;;;6042691;23;20050;-86
2022/10/07 02:44:29;;;;;;;15.23;3.67;;;9.80;99.90;;;;;;6035505;23;20022;-86
2022/10/07 02:47:02;;;;;;;9.30;3.28;;;9.80;99.90;;;;;;6044013;23;20010;-86
2022/10/07 02:49:29;;;;;;;;;;;11.10;99.90;;;;;;6044400;23;20024;-86
2022/10/07 02:52:07;;;;;;;14.75;3.17;;;10.00;99.90;;;;;;6068232;23;19917;-86
2022/10/07 02:55:03;;;;;;;16.50;3.53;;;9.70;99.90;;;;;;6068090;23;20385;-86
2022/10/07 02:57:42;;;;;;;14.07;3.13;;;9.70;99.90;;;;;;6054302;23;20018;-85
2022/10/07 03:00:09;;;;;;;13.85;3.85;;;11.00;99.90;;;;;;6044055;23;20018;-85
2022/10/07 03:02:45;;;;;;;14.75;3.60;;;9.80;99.90;;;;;;6068945;23;20010;-86
2022/10/07 03:05:13;;;;;;;13.43;3.55;;;9.80;99.90;;;;;;6066480;23;20018;-85
2022/10/07 03:07:40;;;;;;;15.18;3.90;;;10.80;99.90;;;;;;6066936;23;20010;-87
2022/10/07 03:10:07;;;;;;;14.50;3.78;;;9.80;99.90;;;;;;6067819;23;20020;-86
2022/10/07 03:12:33;;;;;;;13.65;3.42;;;9.80;99.90;;;;;;6092464;23;20090;-86
2022/10/07 03:14:59;;;;;;;14.50;3.47;;;9.80;99.90;;;;;;6094048;23;20397;-87
2022/10/07 03:17:24;;;;;;;15.55;3.22;;;10.50;99.90;;;;;;6067805;23;20445;-87
2022/10/07 03:19:50;;;;;;;15.15;3.63;;;9.70;99.90;;;;;;6068341;23;20014;-86
2022/10/07 03:22:16;;;;;;;11.73;3.10;;;9.70;99.90;;;;;;6043900;23;20018;-87
2022/10/07 03:24:41;;;;;;;15.25;4.00;;;10.90;99.90;;;;;;6020521;23;20057;-86
2022/10/07 03:27:07;;;;;;;17.42;3.67;;;9.70;99.90;;;;;;6068285;23;20021;-86
2022/10/07 03:29:34;;;;;;;13.43;3.50;;;10.80;99.90;;;;;;6043477;23;20033;-86
2022/10/07 03:32:00;;;;;;;15.98;3.78;;;10.40;99.90;;;;;;6043300;23;20022;-87
2022/10/07 03:34:27;;;;;;;15.75;3.75;;;9.60;99.90;;;;;;6067782;23;20014;-87
2022/10/07 03:36:54;;;;;;;12.77;3.63;;;9.60;99.90;;;;;;6068024;23;20018;-85
2022/10/07 03:39:20;;;;;;;13.88;3.97;;;10.30;99.90;;;;;;6043457;23;20010;-86
2022/10/07 03:41:47;;;;;;;15.15;3.65;;;9.60;99.90;;;;;;6039569;23;20015;-86
2022/10/07 03:44:13;;;;;;;10.35;3.33;;;9.00;99.90;;;;;;6085571;23;20412;-86
2022/10/07 03:46:39;;;;;;;16.85;4.03;;;10.20;99.90;;;;;;6043444;23;20104;-86
2022/10/07 03:49:05;;;;;;;16.40;3.70;;;10.50;99.90;;;;;;6092351;23;20330;-86
2022/10/07 03:51:31;;;;;;;13.20;3.70;;;9.60;99.90;;;;;;6043977;23;20033;-86
2022/10/07 03:53:58;;;;;;;11.35;3.53;;;9.60;99.90;;;;;;6042526;23;20073;-86
2022/10/07 03:56:24;;;;;;;15.77;3.78;;;10.60;99.90;;;;;;6042220;23;20445;-86
2022/10/07 03:58:51;;;;;;;13.43;3.83;;;9.50;99.90;;;;;;6067178;23;20022;-85
2022/10/07 04:01:17;;;;;;;15.82;4.30;;;9.50;99.90;;;;;;6042600;23;20024;-86
2022/10/07 04:03:43;;;;;;;13.68;3.75;;;9.50;99.90;;;;;;6043729;23;20050;-86
2022/10/07 04:06:09;;;;;;;16.67;4.40;;;9.50;99.90;;;;;;6067142;23;20022;-86
2022/10/07 04:08:35;;;;;;;13.82;4.07;;;9.90;99.90;;;;;;6066766;23;20015;-86
2022/10/07 04:11:02;;;;;;;14.95;3.88;;;10.20;99.90;;;;;;6041928;23;20021;-86
2022/10/07 04:13:27;;;;;;;18.50;4.13;;;9.40;99.90;;;;;;6067953;23;20516;-86
2022/10/07 04:15:54;;;;;;;17.55;3.85;;;9.40;99.90;;;;;;6067760;23;20050;-85
2022/10/07 04:18:21;;;;;;;10.80;3.78;;;9.40;99.90;;;;;;6092235;23;20017;-85
2022/10/07 04:20:47;;;;;;;15.50;3.78;;;10.50;99.90;;;;;;6042456;23;20349;-86
2022/10/07 04:23:12;;;;;;;12.63;3.85;;;9.40;99.90;;;;;;6043707;23;20014;-86
2022/10/07 04:25:45;;;;;;;15.10;4.15;;;9.40;99.90;;;;;;6067400;23;20086;-86
2022/10/07 04:28:18;;;;;;;14.07;3.85;;;9.40;99.90;;;;;;6040635;23;20393;-86
2022/10/07 04:30:49;;;;;;;11.20;3.83;;;9.40;99.90;;;;;;6066497;23;20025;-85
2022/10/07 04:33:19;;;;;;;13.80;4.25;;;9.40;99.90;;;;;;6042702;23;20015;-86
2022/10/07 04:35:45;;;;;;;14.15;4.65;;;9.40;99.90;;;;;;6020423;23;20089;-86
2022/10/07 04:38:13;;;;;;;14.23;4.10;;;9.30;99.90;;;;;;6067117;23;20062;-86
2022/10/07 04:40:44;;;;;;;19.35;4.93;;;9.30;99.90;;;;;;6066848;23;20125;-86
2022/10/07 04:43:18;;;;;;;14.85;4.50;;;9.40;99.90;;;;;;6065758;23;20018;-85
2022/10/07 04:45:46;;;;;;;13.40;4.30;;;9.30;99.90;;;;;;6041761;23;20014;-86
2022/10/07 04:48:11;;;;;;;15.70;4.50;;;9.30;99.90;;;;;;6092252;23;20461;-86
2022/10/07 04:50:38;;;;;;;17.35;4.38;;;9.30;99.90;;;;;;6066534;23;20010;-86
2022/10/07 04:53:09;;;;;;;18.25;4.32;;;9.30;99.90;;;;;;6065073;23;20026;-86
2022/10/07 04:55:43;;;;;;;17.27;4.95;;;9.30;99.90;;;;;;6063479;23;20018;-87
2022/10/07 04:58:09;;;;;;;15.38;4.30;;;9.30;99.90;;;;;;6066315;23;20018;-86
2022/10/07 05:00:43;;;;;;;17.10;4.50;;;9.70;99.90;;;;;;6091280;23;20021;-87
2022/10/07 05:03:10;;;;;;;15.38;4.32;;;10.20;99.90;;;;;;6091278;23;20014;-86
2022/10/07 05:05:39;;;;;;;15.30;4.82;;;9.20;99.90;;;;;;6040011;23;20011;-85
2022/10/07 05:08:06;;;;;;;17.95;4.25;;;10.20;99.90;;;;;;6064879;23;20018;-85
2022/10/07 05:10:35;;;;;;;17.25;4.53;;;9.20;99.90;;;;;;6041243;23;20079;-86
2022/10/07 05:13:02;;;;;;;15.38;4.30;;;9.30;99.90;;;;;;6042408;23;20414;-87
2022/10/07 05:15:28;;;;;;;18.05;4.65;;;9.30;99.90;;;;;;6093143;23;20021;-87
2022/10/07 05:17:54;;;;;;;15.15;3.92;;;10.40;99.90;;;;;;6067202;23;20018;-86
2022/10/07 05:20:21;;;;;;;16.85;4.38;;;9.30;99.90;;;;;;6066269;23;20029;-86
2022/10/07 05:22:46;;;;;;;19.20;4.28;;;9.40;99.90;;;;;;6067602;23;20049;-86
2022/10/07 05:25:12;;;;;;;15.82;4.68;;;9.90;99.90;;;;;;6043669;23;20010;-87
2022/10/07 05:27:39;;;;;;;15.60;4.22;;;9.40;99.90;;;;;;6092612;23;20579;-86
2022/10/07 05:30:06;;;;;;;18.23;4.90;;;10.40;99.90;;;;;;6041115;23;20010;-86
2022/10/07 05:32:31;;;;;;;18.85;4.18;;;9.40;99.90;;;;;;6067084;23;20025;-85
2022/10/07 05:34:57;;;;;;;15.80;3.90;;;9.40;99.90;;;;;;6066771;23;20014;-88
2022/10/07 05:37:23;;;;;;;20.38;4.45;;;9.50;99.90;;;;;;6041194;23;20031;-84
2022/10/07 05:39:48;;;;;;;19.15;4.47;;;9.50;99.90;;;;;;6062772;23;20401;-86
2022/10/07 05:42:14;;;;;;;16.17;4.00;;;9.50;99.90;;;;;;6042376;23;20018;-85
2022/10/07 05:44:40;;;;;;;15.65;4.15;;;9.60;99.90;;;;;;6066944;23;20025;-86
2022/10/07 05:47:05;;;;;;;18.40;4.55;;;9.60;99.90;;;;;;6043251;23;20014;-86
2022/10/07 05:49:31;;;;;;;14.45;4.13;;;9.60;99.90;;;;;;6043354;23;20018;-86
2022/10/07 05:51:57;;;;;;;14.32;4.35;;;9.60;99.90;;;;;;6042940;23;20384;-87
2022/10/07 05:54:23;;;;;;;15.90;4.55;;;10.80;99.90;;;;;;6043708;23;20014;-87
2022/10/07 05:56:49;;;;;;;17.88;4.38;;;9.60;99.90;;;;;;6043966;23;20019;-85
2022/10/07 05:59:14;;;;;;;20.17;4.40;;;9.60;99.90;;;;;;6043297;23;20014;-86
2022/10/07 06:01:41;;;;;;;15.43;4.22;;;10.10;99.90;;;;;;6043396;23;20357;-85
2022/10/07 06:04:07;;;;;;;16.95;3.97;;;10.80;99.90;;;;;;6044239;23;20388;-85
2022/10/07 06:06:34;;;;;;;17.38;4.22;;;9.70;99.90;;;;;;6068093;23;20050;-86
2022/10/07 06:14:28;;;;;;;16.63;4.10;;;9.80;99.90;;;;;;6041927;23;20449;-87
2022/10/07 06:16:54;;;;;;;16.52;4.32;;;9.80;99.90;;;;;;6065320;23;20019;-86
2022/10/07 06:19:23;;;;;;;17.02;3.90;;;9.80;99.90;;;;;;6041855;23;20105;-88
2022/10/07 06:21:49;;;;;;;17.58;4.40;;;9.90;99.90;;;;;;6067818;23;20037;-87
2022/10/07 06:24:15;;;;;;;17.38;4.18;;;9.90;99.90;;;;;;6067847;23;20079;-89
2022/10/07 06:26:41;;;;;;;15.55;4.40;;;9.90;99.90;;;;;;6044247;23;20086;-88
2022/10/07 06:29:07;;;;;;;18.65;5.13;;;9.90;99.90;;;;;;6043187;23;20010;-87
2022/10/07 06:31:33;;;;;;;16.33;4.78;;;11.30;99.90;;;;;;6044281;23;20014;-87
2022/10/07 06:33:59;;;;;;;16.25;4.90;;;10.10;99.90;;;;;;6066296;23;20430;-87
2022/10/07 06:36:25;;;;;;;21.08;4.88;;;10.20;99.90;;;;;;6041805;23;20090;-87
2022/10/07 06:38:53;;;;;;;17.90;4.57;;;10.20;99.90;;;;;;6044595;23;20065;-86
2022/10/07 06:41:20;;;;;;;17.15;4.35;;;10.30;99.90;;;;;;6043677;23;20015;-86
2022/10/07 06:43:46;;;;;;;17.30;4.40;;;10.30;99.90;;;;;;6044426;23;20467;-86
2022/10/07 06:46:17;;;;;;;18.80;5.10;;;10.40;99.90;;;;;;6043910;23;20018;-86
2022/10/07 06:48:45;;;;;;;20.10;5.68;;;10.50;99.90;;;;;;6043575;23;20324;-86
2022/10/07 06:51:19;;;;;;;13.68;5.18;;;10.60;99.90;;;;;;6039771;23;20439;-85
2022/10/07 06:53:45;;;;;;;20.35;4.82;;;10.70;99.90;;;;;;6042900;23;20507;-86
2022/10/07 06:56:13;;;;;;;16.55;5.15;;;10.70;99.90;;;;;;6043642;23;20025;-87
2022/10/07 06:58:39;;;;;;;16.17;4.72;;;10.80;99.90;;;;;;6044243;23;20452;-86
2022/10/07 07:01:05;;;;;;;18.02;4.47;;;10.90;99.90;;;;;;6041801;23;20011;-87
2022/10/07 07:03:31;;;;;;;18.05;4.50;;;10.90;99.90;;;;;;6044304;23;20026;-86
2022/10/07 07:05:57;;;;;;;14.10;4.13;;;11.00;99.90;;;;;;6064095;23;20014;-86
2022/10/07 07:08:30;;;;;;;18.73;4.47;;;11.00;99.90;;;;;;6043910;23;20460;-85
2022/10/07 07:11:02;;;;;;;18.25;4.50;;;11.10;99.90;;;;;;6042402;23;20028;-87
2022/10/07 07:13:28;;;;;;;15.27;4.65;;;11.90;99.90;;;;;;6067502;23;20021;-88
2022/10/07 07:15:56;;;;;;;16.13;4.60;;;12.40;99.90;;;;;;6042743;23;20018;-87
2022/10/07 07:18:22;;;;;;;18.23;4.78;;;11.30;99.90;;;;;;6042709;23;20046;-88
2022/10/07 07:20:50;;;;;;;21.58;4.53;;;11.30;99.90;;;;;;6044010;23;20409;-88
2022/10/07 07:23:15;;;;;;;14.93;4.32;;;11.30;99.90;;;;;;6043903;23;20022;-86
2022/10/07 07:25:44;;;;;;;19.65;5.05;;;11.40;99.90;;;;;;6066019;23;20018;-85
2022/10/07 07:28:12;;;;;;;17.15;4.68;;;11.50;99.90;;;;;;6020113;23;20019;-86
2022/10/07 07:30:39;;;;;;;16.15;4.20;;;11.80;99.90;;;;;;6042870;23;20018;-86
2022/10/07 07:33:04;;;;;;;16.13;4.57;;;11.70;99.90;;;;;;6043008;23;20021;-88
2022/10/07 07:35:34;;;;;;;17.92;4.03;;;11.70;99.90;;;;;;6066415;23;20678;-86
2022/10/07 07:38:00;;;;;;;15.05;3.95;;;11.90;99.90;;;;;;6042156;23;20023;-88
2022/10/07 07:40:26;;;;;;;14.98;4.40;;;11.80;99.90;;;;;;6043169;23;20030;-86
2022/10/07 07:42:54;;;;;;;17.20;4.00;;;11.90;99.90;;;;;;6044193;23;20018;-88
2022/10/07 07:45:31;;;;;;;14.43;4.18;;;11.90;99.90;;;;;;6042634;23;20021;-89
2022/10/07 07:47:58;;;;;;;13.88;3.65;;;12.00;99.90;;;;;;6043073;23;20389;-86
2022/10/07 07:50:26;;;;;;;16.33;4.05;;;12.00;99.90;;;;;;6017940;23;20053;-87
2022/10/07 07:52:55;;;;;;;16.42;3.83;;;12.00;99.90;;;;;;6091343;23;20394;-86
2022/10/07 07:55:22;;;;;;;17.75;4.18;;;12.10;99.90;;;;;;6041870;23;20034;-84
2022/10/07 07:57:48;;;;;;;14.43;3.90;;;12.20;99.90;;;;;;6067473;23;20015;-86
2022/10/07 08:00:15;;;;;;;16.30;4.03;;;12.20;99.90;;;;;;6042777;23;20018;-88
2022/10/07 08:02:42;;;;;;;15.73;4.00;;;12.30;99.90;;;;;;6067333;23;20101;-87
2022/10/07 08:05:07;;;;;;;16.25;4.00;;;12.30;99.90;;;;;;6042752;23;20010;-88
2022/10/07 08:07:34;;;;;;;15.43;3.75;;;12.40;99.90;;;;;;6043494;23;20020;-88
2022/10/07 08:10:00;;;;;;;11.70;3.40;;;12.50;99.90;;;;;;6042535;23;20018;-86
2022/10/07 08:12:26;;;;;;;19.85;4.53;;;12.50;99.90;;;;;;6042376;23;20117;-85
2022/10/07 08:14:52;;;;;;;18.83;4.32;;;12.60;99.90;;;;;;6020445;23;20385;-87
2022/10/07 08:17:18;;;;;;;18.25;4.15;;;12.70;99.90;;;;;;6018823;23;20022;-86
2022/10/07 08:19:46;;;;;;;14.10;3.67;;;12.80;99.90;;;;;;6066975;23;20021;-85
2022/10/07 08:22:16;;;;;;;19.65;3.95;;;12.70;99.90;;;;;;6019105;23;20144;-86
2022/10/07 08:24:42;;;;;;;16.83;4.05;;;12.90;99.90;;;;;;6043172;23;20458;-89
2022/10/07 08:27:07;;;;;;;13.85;3.50;;;12.90;99.90;;;;;;6067629;23;20475;-86
2022/10/07 08:29:33;;;;;;;17.58;3.95;;;13.00;99.90;;;;;;6020622;23;20030;-87
2022/10/07 08:31:59;;;;;;;15.25;3.80;;;13.00;99.90;;;;;;6042743;23;20019;-87
2022/10/07 08:34:25;;;;;;;17.70;4.22;;;13.10;99.90;;;;;;6067244;23;20412;-86
2022/10/07 08:36:51;;;;;;;16.40;3.72;;;13.10;99.90;;;;;;6092976;23;20105;-85
2022/10/07 08:39:17;;;;;;;16.73;4.40;;;13.20;99.90;;;;;;6019787;23;20010;-88
2022/10/07 08:42:01;;;;;;;17.50;3.97;;;13.20;99.90;;;;;;6066734;23;20014;-88
2022/10/07 08:44:31;;;;;;;13.63;3.30;;;13.30;99.90;;;;;;6065852;23;20029;-88
2022/10/07 08:47:14;;;;;;;17.23;4.03;;;13.40;99.90;;;;;;6043527;23;20010;-86
2022/10/07 08:49:55;;;;;;;12.18;3.20;;;13.40;99.90;;;;;;6044307;23;20022;-88
2022/10/07 08:52:36;;;;;;;18.95;4.07;;;13.50;99.90;;;;;;6066184;23;20453;-90
2022/10/07 08:55:08;;;;;;;18.48;3.80;;;13.60;99.90;;;;;;6041363;23;20026;-87
2022/10/07 08:58:02;;;;;;;15.80;3.90;;;13.60;99.90;;;;;;6042100;23;20022;-90
2022/10/07 09:00:38;;;;;;;16.02;3.40;;;13.70;99.90;;;;;;6043682;23;20018;-88
2022/10/07 09:03:23;;;;;;;15.38;3.90;;;13.70;99.90;;;;;;6045460;23;20026;-88
2022/10/07 09:05:49;;;;;;;17.63;3.53;;;13.80;99.90;;;;;;6071675;23;20014;-88
2022/10/07 09:08:39;;;;;;;14.32;3.55;;;13.90;99.90;;;;;;6018683;23;20014;-90
2022/10/07 09:11:18;;;;;;;17.20;4.03;;;14.00;99.90;;;;;;6074391;23;20025;-90
2022/10/07 09:14:03;;;;;;;18.65;3.58;;;14.00;99.90;;;;;;6046792;23;20081;-87
2022/10/07 09:16:37;;;;;;;14.77;3.63;;;14.10;99.90;;;;;;6039703;23;20048;-89
2022/10/07 09:19:04;;;;;;;21.35;3.90;;;15.10;99.90;;;;;;6043039;23;20018;-86
2022/10/07 09:21:42;;;;;;;14.38;3.15;;;14.30;99.90;;;;;;6019321;23;20018;-86
2022/10/07 09:24:24;;;;;;;14.13;3.40;;;14.40;99.90;;;;;;6065615;23;20077;-86
2022/10/07 09:26:57;;;;;;;15.75;3.63;;;14.50;99.90;;;;;;6065991;23;20019;-86
2022/10/07 09:29:26;;;;;;;17.42;3.25;;;14.50;99.90;;;;;;6042550;23;20205;-86
2022/10/07 09:31:52;;;;;;;16.27;3.17;;;14.60;99.90;;;;;;6040629;23;20018;-87
2022/10/07 09:34:27;;;;;;;16.75;3.47;;;14.70;99.90;;;;;;6066551;23;20022;-86
2022/10/07 09:37:24;;;;;;;17.80;4.03;;;14.80;99.90;;;;;;6066019;23;20018;-87
2022/10/07 09:39:58;;;;;;;16.45;3.20;;;14.90;99.90;;;;;;6014807;23;20029;-87
2022/10/07 09:42:34;;;;;;;13.30;3.00;;;14.90;99.90;;;;;;6066430;23;20056;-88
2022/10/07 09:45:21;;;;;;;15.93;3.20;;;15.00;99.90;;;;;;6042324;23;20014;-86
2022/10/07 09:47:56;;;;;;;14.02;3.08;;;15.00;99.90;;;;;;6041013;23;20015;-87
2022/10/07 09:50:32;;;;;;;18.63;3.80;;;15.10;99.90;;;;;;6042008;23;20030;-87
2022/10/07 09:53:00;;;;;;;16.73;3.33;;;15.10;99.90;;;;;;6042408;23;20021;-89
2022/10/07 09:55:36;;;;;;;17.30;3.72;;;15.20;99.90;;;;;;6044263;23;20021;-88
2022/10/07 09:58:23;;;;;;;15.88;3.55;;;15.20;99.90;;;;;;6066478;23;20029;-85
2022/10/07 10:00:51;;;;;;;16.40;3.78;;;15.30;99.90;;;;;;6042762;23;20037;-86
2022/10/07 10:03:18;;;;;;;20.77;4.13;;;15.30;99.90;;;;;;6044062;23;20010;-85
2022/10/07 10:06:11;;;;;;;15.10;3.42;;;15.30;99.90;;;;;;6067095;23;20349;-86
2022/10/07 10:08:43;;;;;;;17.60;3.78;;;15.40;99.90;;;;;;6058685;23;20155;-85
2022/10/07 10:11:31;;;;;;;12.02;3.25;;;15.50;99.90;;;;;;6041123;23;20101;-84
2022/10/07 10:13:57;;;;;;;15.73;3.60;;;15.60;99.90;;;;;;6067529;23;20468;-85
2022/10/07 10:16:34;;;;;;;11.48;3.10;;;15.70;99.90;;;;;;6020405;23;20025;-85
2022/10/07 10:19:20;;;;;;;12.30;2.80;;;15.70;99.90;;;;;;6069002;23;20018;-85
2022/10/07 10:21:56;;;;;;;16.17;3.30;;;15.80;99.90;;;;;;6068026;23;20025;-85
2022/10/07 10:27:33;;;;;;;16.20;3.13;;;15.80;99.90;;;;;;6046708;23;20052;-86
2022/10/07 10:30:05;;;;;;;15.45;3.53;;;15.80;99.90;;;;;;6044550;23;20018;-85
2022/10/07 10:32:42;;;;;;;15.13;3.10;;;15.70;99.90;;;;;;6068540;23;20405;-86
2022/10/07 10:35:27;;;;;;;17.23;3.90;;;15.70;99.90;;;;;;6067275;23;20029;-86
2022/10/07 10:38:25;;;;;;;14.10;3.05;;;15.60;99.90;;;;;;6068395;23;20026;-85
2022/10/07 10:41:17;;;;;;;13.70;3.08;;;15.60;99.90;;;;;;6043216;23;20015;-85
2022/10/07 10:44:18;;;;;;;18.48;4.00;;;15.50;99.90;;;;;;6068779;23;20340;-85
2022/10/07 10:47:10;;;;;;;15.57;3.17;;;15.50;99.90;;;;;;6044063;23;20016;-86
2022/10/07 10:49:42;;;;;;;13.70;3.13;;;15.70;99.90;;;;;;6041436;23;20014;-85
2022/10/07 10:52:34;;;;;;;20.98;3.63;;;15.80;99.90;;;;;;6067096;23;20014;-86
2022/10/07 10:55:05;;;;;;;14.90;3.15;;;15.80;99.90;;;;;;6066899;23;20254;-84
2022/10/07 10:57:54;;;;;;;19.30;3.75;;;15.90;99.90;;;;;;6065871;23;20093;-86
2022/10/07 11:00:21;;;;;;;16.20;3.40;;;16.00;99.90;;;;;;6043146;23;20010;-85
2022/10/07 11:02:51;;;;;;;17.27;3.33;;;16.10;99.90;;;;;;6042678;23;20061;-86
2022/10/07 11:05:23;;;;;;;14.43;3.00;;;16.20;99.90;;;;;;6041087;23;20014;-86
2022/10/07 11:08:00;;;;;;;15.57;3.05;;;16.30;99.90;;;;;;6043136;23;20030;-86
2022/10/07 11:10:53;;;;;;;14.77;3.10;;;16.30;99.90;;;;;;6041049;23;20457;-85
2022/10/07 11:13:39;;;;;;;13.55;3.28;;;16.50;99.90;;;;;;6042274;23;20010;-86
2022/10/07 11:16:37;;;;;;;12.50;2.78;;;16.50;99.90;;;;;;6043591;23;20045;-86
2022/10/07 11:19:10;;;;;;;12.40;2.75;;;16.20;99.90;;;;;;6066292;23;20050;-88
2022/10/07 11:21:40;;;;;;;13.35;2.92;;;16.80;99.90;;;;;;6043853;23;20024;-87
2022/10/07 11:24:23;;;;;;;12.50;3.00;;;16.80;99.90;;;;;;6043532;23;20140;-87
2022/10/07 11:27:14;;;;;;;12.00;2.70;;;16.90;99.90;;;;;;6043589;23;20058;-88
2022/10/07 11:30:01;;;;;;;13.95;2.67;;;17.00;99.90;;;;;;6044463;23;20022;-88
2022/10/07 11:32:29;;;;;;;12.68;2.65;;;17.00;99.90;;;;;;6044100;23;20089;-88
2022/10/07 11:35:22;;;;;;;11.23;2.28;;;17.00;99.90;;;;;;6043208;23;20089;-89
2022/10/07 11:38:03;;;;;;;11.80;2.72;;;17.10;99.90;;;;;;6044947;23;20086;-88
2022/10/07 11:40:31;;;;;;;11.65;2.60;;;17.30;99.90;;;;;;6044058;23;20033;-84
2022/10/07 11:43:07;;;;;;;12.10;2.58;;;17.30;99.90;;;;;;6044505;23;20014;-85
2022/10/07 11:45:48;;;;;;;11.27;2.78;;;17.30;99.90;;;;;;6044421;23;20433;-85
2022/10/07 11:48:22;;;;;;;13.50;2.60;;;17.40;99.90;;;;;;6043139;23;20018;-86
2022/10/07 11:50:58;;;;;;;13.93;2.55;;;17.40;99.90;;;;;;6066461;23;20029;-87
2022/10/07 11:53:27;;;;;;;15.00;3.22;;;17.40;99.90;;;;;;6043052;23;20383;-86
2022/10/07 11:56:24;;;;;;;18.70;2.80;;;17.40;99.90;;;;;;6043151;23;20014;-87
2022/10/07 11:59:02;;;;;;;12.15;2.60;;;17.40;99.90;;;;;;6048644;23;20134;-85
2022/10/07 12:01:27;;;;;;;12.68;2.58;;;17.50;99.90;;;;;;6066395;23;20014;-88
2022/10/07 12:04:28;;;;;;;14.10;3.42;;;17.60;99.90;;;;;;6069165;23;20022;-87
2022/10/07 12:07:35;;;;;;;13.50;2.58;;;17.50;99.90;;;;;;5968183;23;20010;-88
2022/10/07 12:10:00;;;;;;;9.75;2.30;;;17.50;99.90;;;;;;6068119;23;20361;-87
2022/10/07 12:12:41;;;;;;;12.20;2.40;;;17.60;99.90;;;;;;6066473;23;20077;-88
2022/10/07 12:15:48;;;;;;;12.02;2.35;;;17.70;99.90;;;;;;6044379;23;20014;-86
2022/10/07 12:18:16;;;;;;;10.70;2.35;;;17.70;99.90;;;;;;6041344;23;20015;-87
2022/10/07 12:20:54;;;;;;;9.38;2.35;;;17.60;99.90;;;;;;6049564;23;20109;-87
2022/10/07 12:23:24;;;;;;;10.77;2.40;;;17.60;99.90;;;;;;6043273;23;20010;-86
2022/10/07 12:25:58;;;;;;;9.88;2.20;;;17.40;99.90;;;;;;6070195;23;20010;-85
2022/10/07 12:28:40;;;;;;;11.45;2.60;;;17.30;99.90;;;;;;6046841;23;20037;-86
2022/10/07 12:31:15;;;;;;;11.02;2.75;;;17.40;99.90;;;;;;6042122;23;20022;-88
2022/10/07 12:33:44;;;;;;;14.68;2.42;;;17.40;99.90;;;;;;6042233;23;20018;-88
2022/10/07 12:36:23;;;;;;;13.13;2.58;;;17.40;99.90;;;;;;6041156;23;20022;-89
2022/10/07 12:38:55;;;;;;;12.23;2.63;;;17.40;99.90;;;;;;6066497;23;20019;-87
2022/10/07 12:41:30;;;;;;;13.17;3.10;;;17.30;99.90;;;;;;6066521;23;20078;-87
2022/10/07 12:44:24;;;;;;;11.15;2.30;;;17.40;99.90;;;;;;6042747;23;20006;-88
2022/10/07 12:46:58;;;;;;;14.05;2.90;;;17.50;99.90;;;;;;6064826;23;20057;-85
2022/10/07 12:49:46;;;;;;;9.82;2.03;;;17.40;99.90;;;;;;6066531;23;20022;-86
2022/10/07 12:52:13;;;;;;;10.75;2.28;;;17.50;99.90;;;;;;6043461;23;20018;-85
2022/10/07 12:54:57;;;;;;;14.93;2.60;;;17.50;99.90;;;;;;6043291;23;20326;-87
2022/10/07 12:57:31;;;;;;;11.98;2.65;;;17.40;99.90;;;;;;6042624;23;20014;-88
2022/10/07 13:00:15;;;;;;;14.30;2.88;;;17.40;99.90;;;;;;6091840;23;20010;-86
2022/10/07 13:03:02;;;;;;;12.25;2.40;;;17.30;99.90;;;;;;6043782;23;20018;-87
2022/10/07 13:05:56;;;;;;;12.98;2.83;;;17.40;99.90;;;;;;6066995;23;20019;-87
2022/10/07 13:08:41;;;;;;;15.40;2.53;;;17.50;99.90;;;;;;6066000;23;20191;-87
2022/10/07 13:11:31;;;;;;;9.38;2.22;;;17.40;99.90;;;;;;6065307;23;20022;-88
2022/10/07 13:14:22;;;;;;;9.77;2.35;;;17.40;99.90;;;;;;6066713;23;20022;-88
2022/10/07 13:17:15;;;;;;;10.90;2.60;;;17.30;99.90;;;;;;6050446;23;20057;-86
2022/10/07 13:19:58;;;;;;;10.10;2.35;;;17.20;99.90;;;;;;6041567;23;20018;-87